Time;durP1;ratioP1;P1;durP2;ratioP2;P2;SDS_P1;SDS_P2;PMS_P1;PMS_P2;Temp;Humidity;BMP_temperature;BMP_pressure;BME280_temperature;BME280_humidity;BME280_pressure;Samples;Min_cycle;Max_cycle;Signal;HPM_P1;HPM_P2
2023/05/26 00:00:52;;;;;;;15.73;4.43;;;10.10;99.90;;;;;;5041857;28;20037;-77
2023/05/26 00:03:18;;;;;;;20.83;4.82;;;10.10;99.90;;;;;;5040113;28;20138;-77
2023/05/26 00:05:44;;;;;;;22.75;4.07;;;10.10;99.90;;;;;;5024924;28;20049;-77
2023/05/26 00:08:13;;;;;;;15.73;3.40;;;10.10;99.90;;;;;;5042154;28;20056;-77
2023/05/26 00:10:39;;;;;;;19.23;3.92;;;10.10;99.90;;;;;;5042432;28;20063;-77
2023/05/26 00:13:08;;;;;;;21.50;4.28;;;10.00;99.90;;;;;;5040854;28;20060;-78
2023/05/26 00:15:34;;;;;;;20.15;4.75;;;10.00;99.90;;;;;;5007716;28;20037;-77
2023/05/26 00:18:05;;;;;;;21.63;4.50;;;10.00;99.90;;;;;;5059098;28;20041;-77
2023/05/26 00:20:31;;;;;;;16.60;4.45;;;10.00;99.90;;;;;;5041800;28;20518;-77
2023/05/26 00:22:57;;;;;;;17.77;4.50;;;10.00;99.90;;;;;;5004145;28;20061;-77
2023/05/26 00:25:23;;;;;;;19.25;4.13;;;10.00;99.90;;;;;;5055780;28;20136;-76
2023/05/26 00:27:49;;;;;;;18.77;4.20;;;8.90;99.90;;;;;;5024881;28;20045;-77
2023/05/26 00:30:15;;;;;;;20.27;4.75;;;9.90;99.90;;;;;;5039410;28;20127;-77
2023/05/26 00:32:42;;;;;;;17.77;4.88;;;10.00;99.90;;;;;;5023741;28;20613;-77
2023/05/26 00:35:08;;;;;;;20.55;4.25;;;10.00;99.90;;;;;;5020564;28;20040;-77
2023/05/26 00:37:34;;;;;;;16.80;4.35;;;8.60;99.90;;;;;;5004416;28;20106;-76
2023/05/26 00:40:00;;;;;;;21.98;5.13;;;9.90;99.90;;;;;;5018761;28;20040;-76
2023/05/26 00:42:26;;;;;;;15.95;4.53;;;9.90;99.90;;;;;;5007219;28;20052;-78
2023/05/26 00:44:52;;;;;;;25.67;4.57;;;9.90;99.90;;;;;;5056776;28;20132;-79
2023/05/26 00:47:18;;;;;;;18.90;4.10;;;9.90;99.90;;;;;;5040326;28;20053;-78
2023/05/26 00:49:51;;;;;;;21.75;4.43;;;9.90;99.90;;;;;;5041076;28;20433;-76
2023/05/26 00:52:17;;;;;;;18.17;4.45;;;9.90;99.90;;;;;;5057328;28;20049;-76
2023/05/26 00:54:43;;;;;;;24.13;4.55;;;9.90;99.90;;;;;;5040686;28;20114;-78
2023/05/26 00:57:09;;;;;;;22.25;4.57;;;9.90;99.90;;;;;;5056369;28;20053;-78
2023/05/26 00:59:35;;;;;;;19.20;4.07;;;9.80;99.90;;;;;;5022858;28;20051;-77
2023/05/26 01:02:01;;;;;;;18.05;4.25;;;9.90;99.90;;;;;;5020958;28;20051;-76
2023/05/26 01:04:27;;;;;;;18.70;4.03;;;9.80;99.90;;;;;;5057261;28;20053;-78
2023/05/26 01:06:56;;;;;;;24.23;5.75;;;9.80;99.90;;;;;;5038216;28;20061;-78
2023/05/26 01:09:22;;;;;;;17.75;4.80;;;9.80;99.90;;;;;;5037304;28;20376;-78
2023/05/26 01:11:58;;;;;;;24.30;4.75;;;9.80;99.90;;;;;;5073318;28;20045;-77
2023/05/26 01:14:47;;;;;;;22.75;4.82;;;9.80;99.90;;;;;;5038951;28;20096;-78
2023/05/26 01:17:39;;;;;;;18.77;4.40;;;9.80;99.90;;;;;;5071936;28;20110;-77
2023/05/26 01:20:13;;;;;;;26.58;4.88;;;9.80;99.90;;;;;;5035598;28;20045;-77
2023/05/26 01:22:38;;;;;;;17.52;4.43;;;9.70;99.90;;;;;;5058372;28;20055;-77
2023/05/26 01:25:36;;;;;;;17.00;4.28;;;9.70;99.90;;;;;;5040811;28;20044;-77
2023/05/26 01:28:08;;;;;;;18.42;3.97;;;9.70;99.90;;;;;;5020665;28;20049;-77
2023/05/26 01:30:35;;;;;;;17.15;4.57;;;9.70;99.90;;;;;;5027298;28;20045;-77
2023/05/26 01:33:01;;;;;;;22.70;4.57;;;9.60;99.90;;;;;;5025590;28;20488;-78
2023/05/26 01:35:28;;;;;;;19.23;4.05;;;9.60;99.90;;;;;;5043328;28;20049;-77
2023/05/26 01:37:56;;;;;;;18.17;4.07;;;9.60;99.90;;;;;;5023099;28;20435;-77
2023/05/26 01:40:22;;;;;;;19.42;4.05;;;9.60;99.90;;;;;;5043368;28;20049;-79
2023/05/26 01:43:09;;;;;;;15.95;3.70;;;9.60;99.90;;;;;;5059045;28;20045;-77
2023/05/26 01:45:47;;;;;;;20.38;5.18;;;9.60;99.90;;;;;;5076583;28;20044;-77
2023/05/26 01:48:16;;;;;;;16.75;3.92;;;8.80;99.90;;;;;;5041358;28;20049;-79
2023/05/26 01:50:56;;;;;;;24.35;5.07;;;9.50;99.90;;;;;;5042822;28;20073;-77
2023/05/26 01:53:26;;;;;;;17.55;4.10;;;9.60;99.90;;;;;;5060790;28;20140;-77
2023/05/26 01:55:57;;;;;;;19.33;4.07;;;9.60;99.90;;;;;;5043759;28;20045;-77
2023/05/26 01:58:27;;;;;;;23.13;4.57;;;9.50;99.90;;;;;;5025418;28;20045;-78
2023/05/26 02:00:53;;;;;;;18.42;4.05;;;9.50;99.90;;;;;;5027014;28;20056;-78
2023/05/26 02:03:19;;;;;;;19.42;4.82;;;9.50;99.90;;;;;;5038649;28;20052;-78
2023/05/26 02:05:45;;;;;;;19.75;4.40;;;9.50;99.90;;;;;;5042373;28;20041;-78
2023/05/26 02:08:11;;;;;;;19.35;4.82;;;9.50;99.90;;;;;;5040959;28;20183;-78
2023/05/26 02:10:38;;;;;;;18.95;3.60;;;9.50;99.90;;;;;;5041054;28;20045;-76
2023/05/26 02:13:04;;;;;;;20.98;3.88;;;9.50;99.90;;;;;;5022848;28;20106;-77
2023/05/26 02:15:30;;;;;;;22.55;4.30;;;9.50;99.90;;;;;;5009863;28;20071;-77
2023/05/26 02:17:57;;;;;;;23.58;4.63;;;9.50;99.90;;;;;;5042781;28;20491;-77
2023/05/26 02:20:24;;;;;;;20.25;3.92;;;9.50;99.90;;;;;;5011673;28;20041;-77
2023/05/26 02:22:49;;;;;;;18.60;4.93;;;9.40;99.90;;;;;;5027535;28;20102;-77
2023/05/26 02:25:16;;;;;;;15.32;3.45;;;9.50;99.90;;;;;;5041830;28;20962;-76
2023/05/26 02:27:41;;;;;;;18.88;4.03;;;9.50;99.90;;;;;;5026326;28;20247;-78
2023/05/26 02:30:08;;;;;;;21.13;4.65;;;9.50;99.90;;;;;;5023918;28;20049;-77
2023/05/26 02:32:37;;;;;;;20.33;4.35;;;9.50;99.90;;;;;;5026833;28;20041;-77
2023/05/26 02:35:03;;;;;;;20.70;4.97;;;9.50;99.90;;;;;;5043532;28;20040;-77
2023/05/26 02:37:30;;;;;;;19.67;5.45;;;9.50;99.90;;;;;;5041910;28;20075;-77
2023/05/26 02:39:56;;;;;;;15.32;4.50;;;9.50;99.90;;;;;;5041621;28;20045;-77
2023/05/26 02:42:22;;;;;;;20.50;4.20;;;9.50;99.90;;;;;;5041586;28;20048;-77
2023/05/26 02:44:48;;;;;;;16.33;3.83;;;9.50;99.90;;;;;;5044383;28;20063;-78
2023/05/26 02:47:14;;;;;;;15.25;3.92;;;9.50;99.90;;;;;;5041297;28;20052;-77
2023/05/26 02:49:42;;;;;;;25.13;4.65;;;9.50;99.90;;;;;;5043746;28;20127;-78
2023/05/26 02:52:08;;;;;;;17.55;4.25;;;9.50;99.90;;;;;;5026622;28;20084;-78
2023/05/26 02:54:33;;;;;;;17.90;4.43;;;9.50;99.90;;;;;;5059705;28;20083;-77
2023/05/26 02:56:59;;;;;;;18.38;4.30;;;9.50;99.90;;;;;;5058295;28;20056;-78
2023/05/26 02:59:25;;;;;;;17.65;4.22;;;9.50;99.90;;;;;;5073003;28;20469;-78
2023/05/26 03:01:51;;;;;;;19.55;4.05;;;9.50;99.90;;;;;;5042009;28;20051;-78
2023/05/26 03:04:17;;;;;;;15.63;3.90;;;9.50;99.90;;;;;;5059053;28;20053;-78
2023/05/26 03:06:43;;;;;;;17.27;4.43;;;9.50;99.90;;;;;;5041118;28;20036;-77
2023/05/26 03:09:09;;;;;;;15.95;4.07;;;9.50;99.90;;;;;;5023611;28;20060;-78
2023/05/26 03:11:34;;;;;;;16.58;3.47;;;9.50;99.90;;;;;;5025618;28;20049;-76
2023/05/26 03:14:00;;;;;;;19.23;3.95;;;9.50;99.90;;;;;;5009382;28;20336;-78
2023/05/26 03:16:27;;;;;;;17.92;4.63;;;9.40;99.90;;;;;;5025917;28;20554;-77
2023/05/26 03:18:55;;;;;;;18.48;4.55;;;9.50;99.90;;;;;;5026756;28;20127;-77
2023/05/26 03:21:23;;;;;;;18.80;4.00;;;9.40;99.90;;;;;;5043025;28;20637;-78
2023/05/26 03:23:49;;;;;;;16.08;4.45;;;9.40;99.90;;;;;;5026362;28;20143;-78
2023/05/26 03:26:15;;;;;;;19.10;3.85;;;9.40;99.90;;;;;;5027905;28;20052;-77
2023/05/26 03:28:41;;;;;;;13.95;4.25;;;9.40;99.90;;;;;;5040883;28;20053;-76
2023/05/26 03:31:07;;;;;;;19.13;4.43;;;9.40;99.90;;;;;;5046241;28;20047;-76
2023/05/26 03:33:33;;;;;;;17.58;4.38;;;9.40;99.90;;;;;;5041882;28;20052;-77
2023/05/26 03:36:00;;;;;;;23.15;4.75;;;9.40;99.90;;;;;;5025929;28;20053;-78
2023/05/26 03:38:26;;;;;;;22.20;4.57;;;9.40;99.90;;;;;;5061182;28;20048;-77
2023/05/26 03:40:52;;;;;;;21.27;5.10;;;9.40;99.90;;;;;;5023823;28;20459;-77
2023/05/26 03:43:18;;;;;;;16.13;3.88;;;9.40;99.90;;;;;;5033554;28;20044;-77
2023/05/26 03:45:44;;;;;;;16.92;3.58;;;9.40;99.90;;;;;;5042624;28;20659;-77
2023/05/26 03:48:12;;;;;;;17.25;4.47;;;9.40;99.90;;;;;;5025785;28;20043;-79
2023/05/26 03:50:43;;;;;;;19.80;4.85;;;9.40;99.90;;;;;;5025625;28;20044;-76
2023/05/26 03:53:09;;;;;;;17.80;3.90;;;9.40;99.90;;;;;;5037971;28;20057;-76
2023/05/26 03:55:37;;;;;;;15.88;3.67;;;9.40;99.90;;;;;;5023961;28;20068;-78
2023/05/26 03:58:04;;;;;;;17.55;3.95;;;9.40;99.90;;;;;;5025066;28;20049;-76
2023/05/26 04:00:32;;;;;;;21.15;4.70;;;9.40;99.90;;;;;;5003962;28;20047;-77
2023/05/26 04:02:58;;;;;;;22.33;4.32;;;9.40;99.90;;;;;;5008515;28;20072;-77
2023/05/26 04:05:25;;;;;;;20.33;4.55;;;9.40;99.90;;;;;;5038180;28;20053;-79
2023/05/26 04:07:50;;;;;;;21.17;4.05;;;9.40;99.90;;;;;;5037342;28;20049;-77
2023/05/26 04:10:16;;;;;;;20.70;4.22;;;9.40;99.90;;;;;;5009972;28;20092;-77
2023/05/26 04:12:42;;;;;;;18.42;4.53;;;9.40;99.90;;;;;;5041698;28;20065;-76
2023/05/26 04:15:09;;;;;;;20.65;4.40;;;9.50;99.90;;;;;;5026866;28;20044;-77
2023/05/26 04:17:35;;;;;;;18.70;3.78;;;9.50;99.90;;;;;;5041966;28;20049;-77
2023/05/26 04:20:05;;;;;;;18.27;4.03;;;9.50;99.90;;;;;;5025333;28;20047;-76
2023/05/26 04:22:31;;;;;;;18.55;4.72;;;9.50;99.90;;;;;;5061050;28;20099;-77
2023/05/26 04:24:57;;;;;;;13.63;3.95;;;9.50;99.90;;;;;;5010561;28;20049;-77
2023/05/26 04:27:24;;;;;;;13.55;3.78;;;9.60;99.90;;;;;;5022254;28;20037;-77
2023/05/26 04:29:52;;;;;;;20.00;4.20;;;9.60;99.90;;;;;;5023582;28;20048;-77
2023/05/26 04:32:20;;;;;;;25.35;5.00;;;9.60;99.90;;;;;;5038093;28;20041;-77
2023/05/26 04:34:46;;;;;;;21.70;4.75;;;9.70;99.90;;;;;;5038250;28;20049;-77
2023/05/26 04:37:12;;;;;;;19.55;3.53;;;9.70;99.90;;;;;;5036884;28;20049;-77
2023/05/26 04:39:38;;;;;;;16.35;3.90;;;9.70;99.90;;;;;;5040802;28;20041;-76
2023/05/26 04:42:04;;;;;;;20.20;4.10;;;9.80;99.90;;;;;;5040327;28;20047;-76
2023/05/26 04:44:33;;;;;;;18.88;4.10;;;9.80;99.90;;;;;;5041796;28;20134;-77
2023/05/26 04:47:00;;;;;;;13.98;4.05;;;9.80;99.90;;;;;;5039144;28;20044;-78
2023/05/26 04:49:29;;;;;;;18.95;4.53;;;9.90;99.90;;;;;;5019252;28;20067;-77
2023/05/26 04:51:58;;;;;;;19.80;4.82;;;9.90;99.90;;;;;;5039516;28;20104;-77
2023/05/26 04:54:24;;;;;;;16.70;4.20;;;10.00;99.90;;;;;;5036206;28;20049;-79
2023/05/26 04:56:50;;;;;;;18.73;4.95;;;10.00;99.90;;;;;;5039360;28;20467;-78
2023/05/26 04:59:17;;;;;;;18.85;4.18;;;10.00;99.90;;;;;;5039801;28;20041;-77
2023/05/26 05:01:47;;;;;;;24.63;4.95;;;10.10;99.90;;;;;;5036041;28;20040;-78
2023/05/26 05:04:18;;;;;;;17.02;4.05;;;10.10;99.90;;;;;;5034825;28;20048;-78
2023/05/26 05:06:44;;;;;;;23.27;4.43;;;10.20;99.90;;;;;;5053192;28;20052;-77
2023/05/26 05:09:10;;;;;;;20.08;4.95;;;10.20;99.90;;;;;;5021930;28;20053;-79
2023/05/26 05:11:35;;;;;;;22.77;4.70;;;10.30;99.90;;;;;;5004286;28;20049;-78
2023/05/26 05:14:01;;;;;;;23.88;4.38;;;10.30;99.90;;;;;;5024263;28;20090;-77
2023/05/26 05:16:27;;;;;;;17.13;3.67;;;10.30;99.90;;;;;;5039428;28;20069;-80
2023/05/26 05:18:53;;;;;;;15.02;3.55;;;10.40;99.90;;;;;;5038322;28;20071;-78
2023/05/26 05:21:22;;;;;;;16.25;4.07;;;10.50;99.90;;;;;;5026620;28;20151;-79
2023/05/26 05:23:48;;;;;;;18.42;4.82;;;10.50;99.90;;;;;;5057797;28;20146;-80
2023/05/26 05:26:14;;;;;;;13.60;4.25;;;10.60;99.90;;;;;;5023757;28;20049;-79
2023/05/26 05:28:40;;;;;;;16.73;4.60;;;10.70;99.90;;;;;;5023466;28;20052;-81
2023/05/26 05:31:06;;;;;;;29.77;4.60;;;10.70;99.90;;;;;;5054687;28;20458;-82
2023/05/26 05:33:31;;;;;;;20.75;5.13;;;10.90;99.90;;;;;;5023433;28;20077;-80
2023/05/26 05:35:57;;;;;;;16.02;4.18;;;10.90;99.90;;;;;;5038239;28;20088;-84
2023/05/26 05:38:23;;;;;;;19.73;4.28;;;10.00;99.90;;;;;;5040823;28;20048;-84
2023/05/26 05:40:49;;;;;;;22.60;4.43;;;11.10;99.90;;;;;;5041450;28;20049;-85
2023/05/26 05:43:15;;;;;;;21.17;3.95;;;11.20;99.90;;;;;;5010500;28;20057;-82
2023/05/26 05:45:41;;;;;;;17.63;4.38;;;11.30;99.90;;;;;;5021653;28;20396;-84
2023/05/26 05:48:06;;;;;;;20.48;4.32;;;11.40;99.90;;;;;;5023096;28;20423;-84
2023/05/26 05:50:32;;;;;;;21.15;4.50;;;11.50;99.90;;;;;;5006922;28;20051;-85
2023/05/26 05:52:58;;;;;;;18.42;3.28;;;11.70;99.90;;;;;;5022819;28;20411;-82
2023/05/26 05:55:24;;;;;;;16.52;3.80;;;11.80;99.90;;;;;;5040454;28;20088;-84
2023/05/26 05:57:53;;;;;;;20.20;5.35;;;11.90;99.90;;;;;;5045491;28;20068;-83
2023/05/26 06:00:20;;;;;;;16.23;4.72;;;12.00;99.90;;;;;;5030427;28;20049;-85
2023/05/26 06:02:47;;;;;;;16.52;3.90;;;12.10;99.90;;;;;;5045293;28;20079;-82
2023/05/26 06:05:13;;;;;;;19.60;4.85;;;12.10;99.90;;;;;;5004349;28;20122;-85
2023/05/26 06:07:39;;;;;;;15.27;4.15;;;12.20;99.90;;;;;;5028226;28;20056;-85
2023/05/26 06:10:07;;;;;;;23.70;4.63;;;12.20;99.90;;;;;;5042075;28;20413;-80
2023/05/26 06:12:33;;;;;;;20.95;4.35;;;12.30;99.90;;;;;;5021965;28;20088;-83
2023/05/26 06:14:58;;;;;;;17.25;4.40;;;12.40;99.90;;;;;;5072457;28;21792;-81
2023/05/26 06:17:30;;;;;;;19.02;4.95;;;12.50;99.90;;;;;;5073884;28;20103;-83
2023/05/26 06:19:56;;;;;;;17.48;4.00;;;12.60;99.90;;;;;;5010352;28;20057;-81
2023/05/26 06:22:21;;;;;;;18.45;4.55;;;12.60;99.90;;;;;;5021843;28;20057;-83
2023/05/26 06:24:47;;;;;;;14.52;3.55;;;12.70;99.90;;;;;;5025810;28;20127;-79
2023/05/26 06:27:13;;;;;;;15.02;4.65;;;12.80;99.90;;;;;;5024564;28;20126;-80
2023/05/26 06:29:39;;;;;;;13.10;3.75;;;12.90;99.90;;;;;;5010577;28;20043;-80
2023/05/26 06:32:08;;;;;;;14.95;3.53;;;12.90;99.90;;;;;;5023842;28;20464;-86
2023/05/26 06:34:33;;;;;;;16.48;4.05;;;12.90;99.90;;;;;;5027605;28;20076;-79
2023/05/26 06:36:59;;;;;;;16.85;3.80;;;13.00;99.90;;;;;;5042632;28;20568;-75
2023/05/26 06:39:25;;;;;;;15.45;3.65;;;13.20;99.90;;;;;;5043370;28;20041;-74
2023/05/26 06:41:52;;;;;;;15.50;3.60;;;13.30;99.90;;;;;;4993406;28;20053;-76
2023/05/26 06:44:18;;;;;;;16.80;4.10;;;13.50;99.90;;;;;;5041044;28;20056;-75
2023/05/26 06:46:44;;;;;;;16.63;4.00;;;13.50;99.90;;;;;;5036286;28;20519;-75
2023/05/26 06:49:10;;;;;;;19.05;4.18;;;13.60;99.90;;;;;;5023039;28;20049;-76
2023/05/26 06:51:36;;;;;;;18.45;3.85;;;13.70;99.90;;;;;;5027931;28;20045;-75
2023/05/26 06:54:04;;;;;;;16.63;4.18;;;13.80;99.90;;;;;;5070816;28;20981;-76
2023/05/26 06:56:29;;;;;;;15.85;3.70;;;14.00;99.90;;;;;;5036006;28;20077;-77
2023/05/26 06:58:55;;;;;;;14.35;3.78;;;14.10;99.90;;;;;;5038137;28;20160;-74
2023/05/26 07:01:21;;;;;;;18.25;3.72;;;14.20;99.90;;;;;;5011773;28;20118;-75
2023/05/26 07:03:50;;;;;;;17.27;3.72;;;14.20;99.90;;;;;;5040044;28;20469;-75
2023/05/26 07:06:15;;;;;;;18.45;4.93;;;14.40;99.90;;;;;;5022040;28;20044;-75
2023/05/26 07:08:41;;;;;;;13.90;3.65;;;14.50;99.90;;;;;;5021810;28;20044;-74
2023/05/26 07:11:08;;;;;;;15.65;3.33;;;14.50;99.90;;;;;;5036488;28;20087;-76
2023/05/26 07:13:33;;;;;;;13.52;4.05;;;14.50;99.90;;;;;;5037938;28;20049;-75
2023/05/26 07:16:00;;;;;;;14.93;3.80;;;14.50;99.90;;;;;;5038432;28;20113;-74
2023/05/26 07:18:25;;;;;;;19.38;4.22;;;14.70;99.90;;;;;;5020259;28;20049;-75
2023/05/26 07:20:51;;;;;;;14.05;3.40;;;14.80;99.90;;;;;;5024493;28;20044;-74
2023/05/26 07:23:17;;;;;;;14.32;3.90;;;14.90;99.90;;;;;;5026001;28;20214;-76
2023/05/26 07:25:43;;;;;;;15.95;4.07;;;15.10;99.90;;;;;;5024861;28;20052;-76
2023/05/26 07:28:08;;;;;;;13.32;3.58;;;15.20;99.90;;;;;;5035639;28;20989;-74
2023/05/26 07:30:34;;;;;;;11.73;3.22;;;15.30;99.90;;;;;;5055401;28;20155;-73
2023/05/26 07:33:00;;;;;;;14.38;3.58;;;15.50;99.90;;;;;;5036539;28;20380;-73
2023/05/26 07:35:26;;;;;;;13.95;3.35;;;15.70;99.90;;;;;;5023471;28;20053;-72
2023/05/26 07:37:51;;;;;;;13.85;3.67;;;15.90;99.90;;;;;;5035627;28;20162;-73
2023/05/26 07:40:17;;;;;;;18.35;3.92;;;15.90;99.90;;;;;;5021508;28;20143;-75
2023/05/26 07:42:43;;;;;;;13.40;3.47;;;15.90;99.90;;;;;;5036370;28;20102;-74
2023/05/26 07:45:09;;;;;;;14.90;3.33;;;16.00;99.90;;;;;;5006091;28;20094;-71
2023/05/26 07:47:35;;;;;;;18.58;4.20;;;16.20;99.90;;;;;;5067223;28;20049;-72
2023/05/26 07:50:02;;;;;;;19.15;3.95;;;16.40;99.90;;;;;;5022041;28;20040;-72
2023/05/26 07:52:29;;;;;;;14.70;3.67;;;16.50;99.90;;;;;;5034918;28;20191;-72
2023/05/26 07:54:56;;;;;;;11.38;3.75;;;16.70;99.90;;;;;;5035998;28;20136;-71
2023/05/26 07:57:22;;;;;;;13.80;3.22;;;16.80;99.90;;;;;;5036521;28;20049;-71
2023/05/26 07:59:48;;;;;;;14.65;3.80;;;16.90;99.90;;;;;;5018612;28;20048;-72
2023/05/26 08:02:14;;;;;;;15.75;3.55;;;17.00;99.90;;;;;;5037885;28;20041;-73
2023/05/26 08:04:40;;;;;;;15.65;3.67;;;17.20;99.90;;;;;;5017829;28;20037;-71
2023/05/26 08:07:06;;;;;;;17.42;3.85;;;17.30;99.90;;;;;;5001187;28;20060;-73
2023/05/26 08:09:32;;;;;;;19.95;4.47;;;17.30;99.90;;;;;;5047168;28;20072;-72
2023/05/26 08:12:07;;;;;;;12.60;3.60;;;17.40;99.90;;;;;;5055938;28;20051;-73
2023/05/26 08:14:33;;;;;;;19.73;4.03;;;17.50;99.90;;;;;;5015761;28;20167;-72
2023/05/26 08:16:58;;;;;;;16.02;3.55;;;17.70;99.90;;;;;;5018758;28;20044;-72
2023/05/26 08:19:24;;;;;;;14.13;3.42;;;17.80;99.90;;;;;;5037101;28;20146;-73
2023/05/26 08:21:50;;;;;;;14.10;3.40;;;18.00;99.90;;;;;;5034626;28;20518;-72
2023/05/26 08:24:16;;;;;;;12.30;3.00;;;18.10;99.90;;;;;;5002891;28;20057;-73
2023/05/26 08:26:41;;;;;;;11.85;3.42;;;18.10;99.50;;;;;;5035643;28;20048;-71
2023/05/26 08:29:09;;;;;;;20.98;3.72;;;18.20;99.40;;;;;;5019207;28;20064;-73
2023/05/26 08:31:35;;;;;;;16.20;3.65;;;18.30;99.00;;;;;;5001643;28;20049;-73
2023/05/26 08:34:01;;;;;;;15.63;3.22;;;18.40;98.80;;;;;;5018640;28;20056;-73
2023/05/26 08:36:26;;;;;;;11.50;3.15;;;18.70;98.70;;;;;;5067983;28;20087;-73
2023/05/26 08:38:56;;;;;;;11.20;3.25;;;18.80;98.70;;;;;;5034929;28;20052;-72
2023/05/26 08:41:23;;;;;;;13.57;3.15;;;19.00;98.10;;;;;;5034213;28;20135;-71
2023/05/26 08:43:58;;;;;;;12.13;3.05;;;19.10;97.50;;;;;;5035048;28;20045;-75
2023/05/26 08:46:28;;;;;;;12.45;3.10;;;19.20;96.70;;;;;;5023852;28;20049;-76
2023/05/26 08:48:56;;;;;;;11.65;3.05;;;19.20;96.70;;;;;;5033924;28;20049;-74
2023/05/26 08:51:23;;;;;;;11.85;3.05;;;19.20;96.30;;;;;;5029927;28;20094;-76
2023/05/26 08:53:50;;;;;;;13.35;3.10;;;19.20;96.10;;;;;;5016973;28;20266;-75
2023/05/26 08:56:17;;;;;;;14.88;3.22;;;19.40;96.00;;;;;;5031777;28;20106;-76
2023/05/26 08:58:44;;;;;;;13.05;2.85;;;19.60;95.60;;;;;;5016525;28;20352;-73
2023/05/26 09:01:10;;;;;;;10.40;3.10;;;19.70;95.20;;;;;;5017223;28;20562;-73
2023/05/26 09:03:38;;;;;;;10.95;3.22;;;19.80;94.80;;;;;;5035001;28;20049;-77
2023/05/26 09:06:04;;;;;;;11.93;3.28;;;19.90;94.60;;;;;;5033091;28;20059;-74
2023/05/26 09:08:31;;;;;;;14.70;2.97;;;20.00;94.00;;;;;;5035280;28;20045;-73
2023/05/26 09:11:21;;;;;;;11.25;3.20;;;20.10;93.50;;;;;;5037129;28;20683;-74
2023/05/26 09:13:57;;;;;;;13.77;3.28;;;20.20;92.50;;;;;;5066004;28;20040;-73
2023/05/26 09:16:27;;;;;;;12.35;2.97;;;20.40;92.20;;;;;;5065797;28;20463;-71
2023/05/26 09:19:02;;;;;;;12.65;3.50;;;20.50;92.80;;;;;;5100410;28;20518;-71
2023/05/26 09:21:30;;;;;;;15.13;3.45;;;20.70;92.50;;;;;;5062745;28;20056;-72
2023/05/26 09:23:59;;;;;;;14.57;3.75;;;20.90;92.70;;;;;;5060443;28;20041;-72
2023/05/26 09:26:34;;;;;;;10.75;3.38;;;20.90;92.50;;;;;;5048865;28;20181;-75
2023/05/26 09:29:02;;;;;;;14.57;3.35;;;20.90;91.60;;;;;;5051970;28;20676;-75
2023/05/26 09:31:42;;;;;;;10.98;3.45;;;20.90;91.70;;;;;;5062486;28;20055;-74
2023/05/26 09:34:10;;;;;;;13.35;3.03;;;21.00;91.20;;;;;;5066755;28;20506;-73
2023/05/26 09:36:38;;;;;;;10.98;3.03;;;21.00;91.20;;;;;;5073652;28;20044;-73
2023/05/26 09:39:12;;;;;;;11.32;2.92;;;21.00;91.00;;;;;;5050453;28;20044;-74
2023/05/26 09:41:43;;;;;;;10.77;2.92;;;21.20;90.60;;;;;;5071601;28;20456;-75
2023/05/26 09:44:18;;;;;;;11.32;3.13;;;21.20;90.60;;;;;;5059014;28;20697;-76
2023/05/26 09:46:45;;;;;;;11.70;3.28;;;21.30;90.20;;;;;;5066423;28;20101;-75
2023/05/26 09:49:18;;;;;;;15.00;2.88;;;21.40;90.30;;;;;;5067849;28;20413;-74
2023/05/26 09:51:46;;;;;;;8.57;3.00;;;21.50;89.80;;;;;;5067357;28;20048;-74
2023/05/26 09:54:14;;;;;;;8.00;2.80;;;21.70;89.10;;;;;;5078609;28;20048;-74
2023/05/26 09:56:56;;;;;;;13.93;2.92;;;21.70;87.60;;;;;;5050488;28;20056;-75
2023/05/26 09:59:29;;;;;;;11.70;3.22;;;21.70;85.10;;;;;;5071387;28;20384;-73
2023/05/26 10:01:58;;;;;;;7.85;2.55;;;21.70;86.70;;;;;;5065935;28;20052;-76
2023/05/26 10:04:25;;;;;;;9.60;3.08;;;21.70;86.30;;;;;;5051900;28;20578;-77
2023/05/26 10:06:52;;;;;;;11.00;2.85;;;21.90;86.10;;;;;;5076902;28;20047;-71
2023/05/26 10:09:24;;;;;;;9.57;2.75;;;22.00;85.30;;;;;;5062135;28;20056;-77
2023/05/26 10:11:53;;;;;;;12.55;3.53;;;22.20;84.40;;;;;;5043844;28;20167;-79
2023/05/26 10:14:19;;;;;;;10.18;3.13;;;22.50;84.50;;;;;;5066040;28;20404;-76
2023/05/26 10:16:45;;;;;;;11.43;2.70;;;22.80;83.60;;;;;;5026420;28;20056;-77
2023/05/26 10:19:11;;;;;;;8.85;3.00;;;23.00;82.90;;;;;;5058372;28;20143;-77
2023/05/26 10:21:41;;;;;;;11.80;3.00;;;23.00;82.00;;;;;;5041705;28;20049;-75
2023/05/26 10:24:23;;;;;;;9.32;3.10;;;22.90;81.00;;;;;;5067330;28;20489;-76
2023/05/26 10:27:04;;;;;;;12.40;3.22;;;22.90;79.80;;;;;;5061612;28;20078;-78
2023/05/26 10:29:46;;;;;;;10.48;2.70;;;22.70;78.10;;;;;;5062877;28;20095;-79
2023/05/26 10:32:49;;;;;;;9.82;3.00;;;22.90;79.70;;;;;;5048388;28;20071;-77
2023/05/26 10:35:32;;;;;;;11.25;3.22;;;23.10;78.50;;;;;;5070231;28;20099;-79
2023/05/26 10:38:01;;;;;;;8.55;2.72;;;23.20;76.20;;;;;;5044680;28;20051;-79
2023/05/26 10:40:37;;;;;;;10.13;3.35;;;23.30;78.40;;;;;;5067809;28;20041;-78
2023/05/26 10:43:20;;;;;;;11.70;3.10;;;24.00;77.70;;;;;;5070050;28;20135;-78
2023/05/26 10:45:50;;;;;;;8.65;2.97;;;23.60;75.30;;;;;;5052197;28;20098;-77
2023/05/26 10:48:17;;;;;;;9.57;2.75;;;23.80;77.20;;;;;;5066101;28;20048;-75
2023/05/26 10:51:14;;;;;;;9.73;2.75;;;23.90;76.50;;;;;;5047579;28;20499;-75
2023/05/26 10:53:46;;;;;;;11.23;3.05;;;24.00;73.40;;;;;;5069562;28;20059;-76
2023/05/26 10:56:17;;;;;;;9.27;2.67;;;24.20;74.80;;;;;;5075940;28;20063;-75
2023/05/26 10:58:51;;;;;;;7.43;2.70;;;24.10;74.10;;;;;;5079306;28;20049;-75
2023/05/26 11:01:26;;;;;;;13.63;3.38;;;24.10;72.60;;;;;;5053612;28;20045;-76
2023/05/26 11:04:09;;;;;;;8.23;2.55;;;24.20;72.80;;;;;;5075298;28;20444;-74
2023/05/26 11:07:00;;;;;;;9.93;2.95;;;24.30;71.40;;;;;;5079132;28;20087;-77
2023/05/26 11:09:27;;;;;;;11.52;2.90;;;24.50;70.80;;;;;;5055002;28;20136;-76
2023/05/26 11:11:55;;;;;;;8.23;2.70;;;24.50;72.30;;;;;;5095430;28;20109;-75
2023/05/26 11:14:28;;;;;;;9.43;3.05;;;24.60;71.50;;;;;;5074576;28;20706;-76
2023/05/26 11:16:58;;;;;;;11.02;3.17;;;24.70;71.10;;;;;;5054988;28;20040;-74
2023/05/26 11:19:42;;;;;;;9.30;3.17;;;24.70;70.70;;;;;;5071529;28;20100;-74
2023/05/26 11:22:15;;;;;;;11.18;3.22;;;24.60;68.50;;;;;;5065176;28;20055;-76
2023/05/26 11:24:42;;;;;;;11.50;3.05;;;24.50;70.40;;;;;;5053652;28;20694;-75
2023/05/26 11:27:08;;;;;;;9.45;2.95;;;24.70;70.40;;;;;;5084326;28;20082;-74
2023/05/26 11:29:34;;;;;;;11.45;3.40;;;24.90;70.80;;;;;;5046865;28;20482;-75
2023/05/26 11:32:00;;;;;;;16.50;3.65;;;24.80;72.00;;;;;;5050173;28;20056;-75
2023/05/26 11:34:26;;;;;;;12.15;3.40;;;24.70;72.80;;;;;;5069340;28;20055;-75
2023/05/26 11:36:58;;;;;;;15.63;3.58;;;24.50;73.40;;;;;;5070310;28;20040;-75
2023/05/26 11:39:28;;;;;;;12.52;3.25;;;24.30;73.80;;;;;;5075746;28;20060;-76
2023/05/26 11:42:06;;;;;;;13.40;3.38;;;24.10;74.00;;;;;;5077616;28;20079;-74
2023/05/26 11:44:32;;;;;;;16.10;3.80;;;23.80;74.90;;;;;;5076983;28;20048;-74
2023/05/26 11:46:58;;;;;;;17.75;4.15;;;23.60;75.40;;;;;;5072457;28;20123;-75
2023/05/26 11:49:25;;;;;;;13.52;3.70;;;23.60;75.50;;;;;;5083214;28;20140;-74
2023/05/26 11:51:57;;;;;;;13.20;3.70;;;23.30;75.50;;;;;;5068123;28;20070;-75
2023/05/26 11:54:24;;;;;;;15.50;3.70;;;23.40;75.80;;;;;;5060753;28;20044;-75
2023/05/26 11:56:50;;;;;;;15.70;4.38;;;23.40;75.90;;;;;;5050179;28;20040;-74
2023/05/26 11:59:21;;;;;;;12.82;3.60;;;23.50;76.20;;;;;;5061084;28;20066;-77
2023/05/26 12:01:48;;;;;;;10.13;3.75;;;23.50;76.00;;;;;;5070109;28;20048;-75
2023/05/26 12:04:14;;;;;;;10.68;3.10;;;23.80;76.00;;;;;;5053300;28;20048;-74
2023/05/26 12:06:44;;;;;;;14.05;3.58;;;23.80;76.00;;;;;;5028468;28;20044;-71
2023/05/26 12:09:22;;;;;;;10.93;3.53;;;23.70;75.70;;;;;;5083892;28;20502;-72
2023/05/26 12:11:50;;;;;;;15.27;4.38;;;23.20;75.00;;;;;;5064119;28;20049;-71
2023/05/26 12:14:17;;;;;;;14.98;3.92;;;23.40;76.10;;;;;;5084070;28;20052;-71
2023/05/26 12:16:47;;;;;;;13.52;3.63;;;23.20;76.60;;;;;;5044807;28;20045;-71
2023/05/26 12:19:18;;;;;;;12.30;3.55;;;22.90;76.80;;;;;;5070170;28;20041;-71
2023/05/26 12:21:49;;;;;;;13.15;3.60;;;22.70;77.40;;;;;;5068675;28;20056;-72
2023/05/26 12:24:29;;;;;;;16.15;4.35;;;22.50;77.70;;;;;;5062264;28;20191;-72
2023/05/26 12:26:55;;;;;;;13.32;3.15;;;22.40;78.00;;;;;;5066699;28;20511;-72
2023/05/26 12:29:21;;;;;;;11.98;3.67;;;22.50;78.60;;;;;;5055766;28;20052;-73
2023/05/26 12:31:49;;;;;;;15.65;4.72;;;22.50;78.30;;;;;;5037664;28;20051;-77
2023/05/26 12:34:27;;;;;;;15.68;3.70;;;22.60;77.90;;;;;;5070575;28;20083;-79
2023/05/26 12:36:53;;;;;;;11.35;3.20;;;22.80;78.10;;;;;;5045879;28;20075;-77
2023/05/26 12:39:20;;;;;;;10.45;3.55;;;23.00;77.80;;;;;;5068325;28;20065;-77
2023/05/26 12:41:46;;;;;;;11.93;3.47;;;23.30;77.40;;;;;;5075002;28;20457;-77
2023/05/26 12:44:14;;;;;;;15.32;3.90;;;23.70;77.10;;;;;;5079412;28;20048;-77
2023/05/26 12:46:44;;;;;;;14.85;3.83;;;23.90;76.50;;;;;;5076483;28;20055;-78